Time;durP1;ratioP1;P1;durP2;ratioP2;P2;SDS_P1;SDS_P2;PMS_P1;PMS_P2;Temp;Humidity;BMP_temperature;BMP_pressure;BME280_temperature;BME280_humidity;BME280_pressure;Samples;Min_cycle;Max_cycle;Signal;HPM_P1;HPM_P2
2021/04/25 00:01:12;;;;;;;0.95;0.65;;;6.70;57.30;;;;;;4994071;28;20029;-77
2021/04/25 00:03:37;;;;;;;1.23;0.75;;;6.70;57.40;;;;;;4994624;28;20491;-77
2021/04/25 00:06:03;;;;;;;1.02;1.00;;;6.70;57.40;;;;;;4994697;28;20031;-77
2021/04/25 00:08:29;;;;;;;0.57;0.57;;;6.80;57.50;;;;;;4994678;28;20035;-77
2021/04/25 00:10:55;;;;;;;0.40;0.40;;;6.80;57.50;;;;;;4994354;28;20121;-77
2021/04/25 00:13:20;;;;;;;1.15;0.90;;;6.90;57.60;;;;;;4994069;28;20023;-77
2021/04/25 00:15:46;;;;;;;0.50;0.50;;;6.90;57.60;;;;;;4994479;28;20026;-76
2021/04/25 00:18:11;;;;;;;0.98;0.60;;;6.90;57.60;;;;;;4994729;28;20073;-78
2021/04/25 00:20:37;;;;;;;2.22;0.93;;;6.90;57.70;;;;;;4994379;28;20030;-77
2021/04/25 00:23:03;;;;;;;0.60;0.60;;;6.90;57.70;;;;;;4994461;28;20019;-76
2021/04/25 00:25:28;;;;;;;0.50;0.50;;;6.90;57.70;;;;;;4994233;28;20033;-76
2021/04/25 00:27:54;;;;;;;0.40;0.40;;;6.90;57.70;;;;;;4994093;28;20348;-77
2021/04/25 00:30:21;;;;;;;0.73;0.68;;;7.00;57.80;;;;;;4994144;28;20386;-76
2021/04/25 00:32:47;;;;;;;0.60;0.60;;;7.00;57.90;;;;;;4994184;28;20037;-77
2021/04/25 00:35:14;;;;;;;1.15;0.70;;;7.00;58.00;;;;;;4976801;28;20026;-78
2021/04/25 00:37:40;;;;;;;0.63;0.52;;;7.00;58.00;;;;;;4994105;28;20025;-77
2021/04/25 00:40:11;;;;;;;1.08;0.88;;;7.00;58.10;;;;;;4994070;28;20026;-75
2021/04/25 00:42:36;;;;;;;1.80;1.55;;;7.00;58.30;;;;;;4976209;28;20027;-76
2021/04/25 00:45:05;;;;;;;0.80;0.80;;;6.90;58.30;;;;;;4994114;28;20018;-77
2021/04/25 00:47:31;;;;;;;0.73;0.60;;;6.90;58.30;;;;;;4994036;28;20027;-77
2021/04/25 00:49:56;;;;;;;0.60;0.60;;;6.80;58.50;;;;;;4993475;28;20078;-76
2021/04/25 00:52:22;;;;;;;3.25;1.13;;;6.70;58.60;;;;;;4993461;28;20026;-77
2021/04/25 00:54:49;;;;;;;2.17;0.93;;;6.60;58.90;;;;;;4994443;28;20490;-77
2021/04/25 00:57:16;;;;;;;0.60;0.60;;;6.50;59.10;;;;;;4993086;28;20018;-77
2021/04/25 00:59:42;;;;;;;0.57;0.57;;;6.40;59.20;;;;;;4976801;28;20054;-77
2021/04/25 01:02:09;;;;;;;0.55;0.55;;;6.30;59.30;;;;;;4993532;28;20043;-77
2021/04/25 01:04:35;;;;;;;0.95;0.63;;;6.30;59.40;;;;;;4993735;28;20444;-77
2021/04/25 01:07:03;;;;;;;0.60;0.60;;;6.20;59.40;;;;;;4993777;28;20096;-76
2021/04/25 01:09:29;;;;;;;1.25;1.15;;;6.20;59.50;;;;;;4993768;28;20032;-77
2021/04/25 01:11:55;;;;;;;0.80;0.77;;;6.10;59.50;;;;;;4993193;28;20034;-78
2021/04/25 01:14:22;;;;;;;1.33;1.15;;;6.10;59.60;;;;;;4993726;28;20026;-78
2021/04/25 01:16:47;;;;;;;0.65;0.40;;;6.00;59.60;;;;;;4993762;28;20038;-77
2021/04/25 01:19:13;;;;;;;0.50;0.50;;;6.00;59.70;;;;;;4976338;28;20054;-77
2021/04/25 01:21:39;;;;;;;0.77;0.70;;;6.00;59.80;;;;;;4976143;28;20030;-76
2021/04/25 01:24:05;;;;;;;1.20;0.77;;;5.90;59.90;;;;;;4993735;28;20021;-77
2021/04/25 01:26:30;;;;;;;0.68;0.68;;;5.80;59.80;;;;;;4975742;28;20034;-78
2021/04/25 01:28:56;;;;;;;0.80;0.80;;;5.80;59.90;;;;;;4993628;28;20022;-78
2021/04/25 01:31:21;;;;;;;1.05;0.70;;;5.70;59.90;;;;;;4993510;28;20562;-77
2021/04/25 01:33:47;;;;;;;0.40;0.40;;;5.70;60.00;;;;;;4993446;28;20030;-76
2021/04/25 01:36:12;;;;;;;0.70;0.70;;;5.60;60.00;;;;;;4992342;28;20434;-77
2021/04/25 01:38:38;;;;;;;0.52;0.52;;;5.50;60.00;;;;;;4993477;28;20758;-76
2021/04/25 01:41:04;;;;;;;0.93;0.73;;;5.50;60.20;;;;;;4992984;28;20530;-76
2021/04/25 01:43:29;;;;;;;0.43;0.43;;;5.50;60.20;;;;;;4993461;28;20024;-76
2021/04/25 01:45:55;;;;;;;0.43;0.40;;;5.40;60.20;;;;;;4993351;28;20501;-76
2021/04/25 01:48:20;;;;;;;0.43;0.40;;;5.40;60.20;;;;;;4992163;28;20468;-76
2021/04/25 01:50:46;;;;;;;1.15;0.50;;;5.30;60.20;;;;;;4992081;28;20034;-77
2021/04/25 01:53:12;;;;;;;0.55;0.55;;;5.30;60.20;;;;;;4993426;28;20018;-77
2021/04/25 01:55:39;;;;;;;0.65;0.38;;;5.20;60.20;;;;;;4992968;28;20041;-77
2021/04/25 01:58:05;;;;;;;0.43;0.35;;;5.20;60.20;;;;;;4993298;28;20026;-77
2021/04/25 02:00:35;;;;;;;0.38;0.38;;;5.30;60.20;;;;;;4992107;28;20112;-77
2021/04/25 02:03:01;;;;;;;0.52;0.50;;;5.30;60.10;;;;;;4995816;28;20056;-77
2021/04/25 02:05:27;;;;;;;0.73;0.70;;;5.30;60.00;;;;;;4996887;28;20548;-77
2021/04/25 02:07:53;;;;;;;0.47;0.47;;;5.30;60.00;;;;;;4979359;28;20057;-77
2021/04/25 02:10:20;;;;;;;0.75;0.70;;;5.30;60.00;;;;;;4996417;28;20041;-75
2021/04/25 02:12:47;;;;;;;0.35;0.30;;;5.30;60.00;;;;;;4996872;28;20028;-77
2021/04/25 02:15:13;;;;;;;0.68;0.50;;;5.30;60.00;;;;;;4996674;28;20045;-77
2021/04/25 02:17:41;;;;;;;0.32;0.32;;;5.30;60.20;;;;;;4996750;28;20375;-75
2021/04/25 02:20:07;;;;;;;0.40;0.40;;;5.20;60.10;;;;;;4996505;28;20054;-77
2021/04/25 02:22:33;;;;;;;0.35;0.35;;;5.20;60.20;;;;;;4979225;28;20320;-77
2021/04/25 02:24:58;;;;;;;0.35;0.30;;;5.20;60.30;;;;;;4996218;28;20538;-76
2021/04/25 02:27:24;;;;;;;1.20;0.80;;;5.20;60.30;;;;;;4996507;28;20073;-77
2021/04/25 02:29:49;;;;;;;0.68;0.65;;;5.20;60.20;;;;;;4996332;28;20138;-76
2021/04/25 02:32:15;;;;;;;0.40;0.40;;;5.20;60.20;;;;;;4996432;28;20026;-77
2021/04/25 02:34:41;;;;;;;0.55;0.50;;;5.20;60.40;;;;;;4996336;28;20033;-78
2021/04/25 02:37:07;;;;;;;0.40;0.40;;;5.20;60.40;;;;;;4996504;28;20037;-76
2021/04/25 02:39:32;;;;;;;1.35;0.70;;;5.10;60.40;;;;;;4995754;28;20018;-77
2021/04/25 02:41:58;;;;;;;0.35;0.35;;;5.20;60.40;;;;;;4996430;28;20080;-77
2021/04/25 02:44:24;;;;;;;0.43;0.43;;;5.20;60.40;;;;;;4996288;28;20080;-76
2021/04/25 02:46:49;;;;;;;1.02;0.98;;;5.20;60.30;;;;;;4996124;28;20097;-76
2021/04/25 02:49:15;;;;;;;0.70;0.70;;;5.20;60.20;;;;;;4995981;28;20120;-76
2021/04/25 02:51:40;;;;;;;0.40;0.40;;;5.20;60.40;;;;;;4996146;28;20038;-77
2021/04/25 02:54:06;;;;;;;0.88;0.30;;;5.30;60.30;;;;;;4995617;28;20446;-75
2021/04/25 02:56:31;;;;;;;0.65;0.55;;;5.30;60.20;;;;;;4995781;28;20023;-76
2021/04/25 02:58:57;;;;;;;0.30;0.30;;;5.30;60.20;;;;;;4996018;28;20430;-76
2021/04/25 03:01:23;;;;;;;0.57;0.57;;;5.30;60.10;;;;;;4995762;28;20033;-78
2021/04/25 03:03:48;;;;;;;0.38;0.38;;;5.30;60.30;;;;;;4995814;28;20014;-78
2021/04/25 03:06:14;;;;;;;0.30;0.30;;;5.30;60.20;;;;;;4995755;28;20440;-77
2021/04/25 03:08:40;;;;;;;0.43;0.43;;;5.30;60.20;;;;;;4995523;28;20045;-78
2021/04/25 03:11:05;;;;;;;0.45;0.30;;;5.40;60.20;;;;;;4995525;28;20509;-76
2021/04/25 03:13:31;;;;;;;0.75;0.68;;;5.30;60.20;;;;;;4994692;28;20023;-76
2021/04/25 03:15:56;;;;;;;0.40;0.30;;;5.40;60.20;;;;;;4995650;28;20041;-76
2021/04/25 03:18:22;;;;;;;0.50;0.50;;;5.30;60.20;;;;;;4995469;28;20105;-76
2021/04/25 03:20:47;;;;;;;1.75;0.60;;;5.40;60.20;;;;;;4995633;28;20031;-76
2021/04/25 03:23:13;;;;;;;0.50;0.50;;;5.40;60.10;;;;;;4994943;28;20045;-76
2021/04/25 03:25:39;;;;;;;0.65;0.65;;;5.50;60.10;;;;;;4995582;28;20066;-76
2021/04/25 03:28:04;;;;;;;0.50;0.45;;;5.50;60.10;;;;;;4995580;28;20018;-77
2021/04/25 03:30:30;;;;;;;0.52;0.52;;;5.50;60.00;;;;;;4995155;28;20034;-77
2021/04/25 03:32:56;;;;;;;0.55;0.55;;;5.60;60.00;;;;;;4995353;28;20030;-77
2021/04/25 03:35:22;;;;;;;0.35;0.35;;;5.70;60.00;;;;;;4995234;28;20026;-75
2021/04/25 03:37:48;;;;;;;0.43;0.43;;;5.70;60.00;;;;;;4994790;28;20426;-77
2021/04/25 03:40:16;;;;;;;0.60;0.60;;;5.70;59.90;;;;;;4995095;28;20415;-78
2021/04/25 03:42:42;;;;;;;0.50;0.50;;;5.70;59.90;;;;;;4995102;28;20030;-77
2021/04/25 03:45:13;;;;;;;0.80;0.80;;;5.70;59.90;;;;;;4995149;28;20553;-76
2021/04/25 03:47:50;;;;;;;0.47;0.32;;;5.80;59.90;;;;;;4994906;28;20467;-77
2021/04/25 03:50:20;;;;;;;0.38;0.38;;;5.80;59.90;;;;;;4995067;28;20061;-77
2021/04/25 03:52:46;;;;;;;0.30;0.30;;;5.90;59.80;;;;;;4993210;28;20113;-77
2021/04/25 03:55:14;;;;;;;0.30;0.30;;;6.00;59.80;;;;;;4994923;28;20033;-77
2021/04/25 03:57:40;;;;;;;0.43;0.38;;;6.00;60.30;;;;;;4994734;28;20023;-77
2021/04/25 04:00:08;;;;;;;0.47;0.38;;;6.00;59.70;;;;;;4994697;28;20027;-76
2021/04/25 04:02:34;;;;;;;0.30;0.30;;;6.00;59.70;;;;;;4994583;28;20085;-77
2021/04/25 04:04:59;;;;;;;0.50;0.50;;;6.00;59.70;;;;;;4994813;28;20050;-76
2021/04/25 04:07:25;;;;;;;0.40;0.40;;;6.10;59.80;;;;;;4994285;28;20058;-76
2021/04/25 04:09:51;;;;;;;0.40;0.40;;;6.10;59.90;;;;;;4994600;28;20026;-76
2021/04/25 04:12:17;;;;;;;0.95;0.45;;;6.10;59.80;;;;;;4994562;28;20114;-76
2021/04/25 04:14:42;;;;;;;0.50;0.50;;;6.10;59.80;;;;;;4994456;28;20054;-77
2021/04/25 04:17:08;;;;;;;0.80;0.77;;;6.10;59.80;;;;;;4994737;28;20065;-76
2021/04/25 04:19:33;;;;;;;0.43;0.43;;;6.10;59.80;;;;;;4994611;28;20022;-77
2021/04/25 04:21:59;;;;;;;0.45;0.45;;;6.10;59.80;;;;;;4993806;28;20046;-77
2021/04/25 04:24:25;;;;;;;0.55;0.55;;;6.20;59.80;;;;;;4994059;28;20034;-77
2021/04/25 04:26:50;;;;;;;0.95;0.60;;;6.20;59.80;;;;;;4994446;28;20030;-76
2021/04/25 04:29:16;;;;;;;1.33;0.70;;;6.20;59.80;;;;;;4994184;28;20033;-77
2021/04/25 04:31:41;;;;;;;0.73;0.63;;;6.20;59.90;;;;;;4994336;28;20157;-78
2021/04/25 04:34:07;;;;;;;0.47;0.47;;;6.20;60.40;;;;;;4994262;28;20092;-78
2021/04/25 04:36:32;;;;;;;0.57;0.57;;;6.20;59.90;;;;;;4993576;28;20053;-76
2021/04/25 04:38:58;;;;;;;0.40;0.40;;;6.20;59.90;;;;;;4994202;28;20426;-78
2021/04/25 04:41:24;;;;;;;0.40;0.40;;;6.30;59.90;;;;;;4994078;28;20443;-77
2021/04/25 04:43:49;;;;;;;0.75;0.70;;;6.30;59.80;;;;;;4994051;28;20525;-77
2021/04/25 04:46:15;;;;;;;0.47;0.47;;;6.40;59.80;;;;;;4976487;28;20401;-77
2021/04/25 04:48:40;;;;;;;0.40;0.40;;;6.30;59.80;;;;;;4993860;28;20069;-77
2021/04/25 04:51:06;;;;;;;0.50;0.50;;;6.30;59.90;;;;;;4993572;28;20030;-78
2021/04/25 04:53:31;;;;;;;0.43;0.40;;;6.20;60.00;;;;;;4993871;28;20490;-78
2021/04/25 04:55:57;;;;;;;0.75;0.60;;;6.30;60.10;;;;;;4993984;28;20382;-75
2021/04/25 04:58:22;;;;;;;0.43;0.40;;;6.20;60.10;;;;;;4993788;28;20459;-77
2021/04/25 05:00:48;;;;;;;0.35;0.35;;;6.20;60.10;;;;;;4993826;28;20034;-77
2021/04/25 05:03:15;;;;;;;0.65;0.65;;;6.30;60.00;;;;;;4993749;28;20053;-77
2021/04/25 05:05:41;;;;;;;0.40;0.40;;;6.40;60.00;;;;;;4992154;28;20026;-76
2021/04/25 05:08:06;;;;;;;0.40;0.40;;;6.40;59.90;;;;;;4993752;28;20015;-76
2021/04/25 05:10:32;;;;;;;0.95;0.82;;;6.40;59.80;;;;;;4993516;28;20383;-76
2021/04/25 05:12:58;;;;;;;0.40;0.40;;;6.40;59.80;;;;;;4993647;28;20035;-76
2021/04/25 05:15:23;;;;;;;0.68;0.45;;;6.50;59.80;;;;;;4993716;28;20033;-76
2021/04/25 05:17:49;;;;;;;0.50;0.50;;;6.50;59.80;;;;;;4993175;28;20066;-77
2021/04/25 05:20:15;;;;;;;0.65;0.60;;;6.50;59.80;;;;;;4976269;28;20022;-77
2021/04/25 05:22:40;;;;;;;0.85;0.45;;;6.50;59.80;;;;;;4993706;28;20045;-76
2021/04/25 05:25:07;;;;;;;0.80;0.80;;;6.50;59.80;;;;;;4993478;28;20335;-77
2021/04/25 05:27:32;;;;;;;1.35;0.60;;;6.50;59.80;;;;;;4993615;28;20038;-77
2021/04/25 05:29:58;;;;;;;0.50;0.50;;;6.50;59.80;;;;;;4993583;28;20019;-76
2021/04/25 05:32:24;;;;;;;0.50;0.50;;;6.50;59.70;;;;;;4993353;28;20475;-75
2021/04/25 05:34:50;;;;;;;0.63;0.63;;;6.60;59.70;;;;;;4993582;28;20414;-77
2021/04/25 05:37:15;;;;;;;0.43;0.43;;;6.60;59.80;;;;;;4995022;28;20076;-76
2021/04/25 05:39:43;;;;;;;0.50;0.50;;;6.60;59.80;;;;;;4997478;28;20053;-77
2021/04/25 05:42:09;;;;;;;1.70;0.75;;;6.70;59.70;;;;;;4997276;28;20026;-76
2021/04/25 05:44:35;;;;;;;0.50;0.50;;;6.70;59.50;;;;;;4997350;28;20037;-77
2021/04/25 05:47:00;;;;;;;0.40;0.40;;;6.80;59.50;;;;;;4996701;28;20356;-77
2021/04/25 05:49:26;;;;;;;0.45;0.45;;;6.80;59.40;;;;;;4997374;28;20109;-76
2021/04/25 05:51:51;;;;;;;0.70;0.70;;;6.90;59.40;;;;;;4997170;28;20382;-75
2021/04/25 05:54:17;;;;;;;0.60;0.60;;;6.90;59.30;;;;;;4999009;28;20030;-76
2021/04/25 05:56:42;;;;;;;0.50;0.50;;;6.90;59.40;;;;;;4997817;28;20033;-78
2021/04/25 05:59:08;;;;;;;0.75;0.75;;;7.00;59.40;;;;;;4997225;28;20033;-76
2021/04/25 06:01:34;;;;;;;0.50;0.50;;;7.00;59.20;;;;;;4996474;28;20034;-76
2021/04/25 06:03:59;;;;;;;0.60;0.60;;;7.10;59.10;;;;;;4997012;28;20029;-76
2021/04/25 06:06:25;;;;;;;0.50;0.50;;;7.10;59.10;;;;;;4996956;28;20026;-77
2021/04/25 06:08:52;;;;;;;1.10;0.60;;;7.00;59.30;;;;;;4996586;28;20081;-78
2021/04/25 06:11:17;;;;;;;0.43;0.43;;;7.00;59.40;;;;;;4997330;28;20042;-77
2021/04/25 06:13:44;;;;;;;1.95;0.63;;;7.00;59.40;;;;;;4996791;28;20026;-77
2021/04/25 06:16:09;;;;;;;0.63;0.63;;;7.00;59.40;;;;;;4996220;28;20069;-78
2021/04/25 06:18:35;;;;;;;0.65;0.60;;;7.10;59.40;;;;;;4996715;28;20050;-78
2021/04/25 06:21:00;;;;;;;0.63;0.63;;;7.10;59.20;;;;;;4979038;28;20454;-75
2021/04/25 06:23:26;;;;;;;0.60;0.60;;;7.10;59.30;;;;;;4996539;28;20041;-77
2021/04/25 06:25:51;;;;;;;0.40;0.40;;;7.10;59.10;;;;;;4996427;28;20111;-78
2021/04/25 06:28:17;;;;;;;0.80;0.65;;;7.20;59.10;;;;;;4996432;28;20026;-77
2021/04/25 06:30:43;;;;;;;0.73;0.60;;;7.30;59.10;;;;;;4996186;28;20038;-80
2021/04/25 06:33:08;;;;;;;0.68;0.68;;;7.20;59.00;;;;;;4996297;28;20081;-78
2021/04/25 06:35:34;;;;;;;0.50;0.50;;;7.20;59.10;;;;;;4995168;28;20027;-79
2021/04/25 06:37:59;;;;;;;0.50;0.50;;;7.30;59.20;;;;;;4996329;28;20022;-78
2021/04/25 06:40:25;;;;;;;2.28;0.80;;;7.30;59.00;;;;;;4996408;28;20028;-80
2021/04/25 06:42:50;;;;;;;1.58;0.57;;;7.30;58.90;;;;;;4996326;28;20027;-78
2021/04/25 06:45:22;;;;;;;0.90;0.85;;;7.40;59.00;;;;;;4995711;28;20076;-81
2021/04/25 06:47:48;;;;;;;0.40;0.40;;;7.40;58.90;;;;;;4996354;28;20018;-79
2021/04/25 06:50:15;;;;;;;0.60;0.60;;;7.50;58.90;;;;;;4996995;28;20104;-79
2021/04/25 06:52:45;;;;;;;0.68;0.45;;;7.50;58.90;;;;;;4996676;28;20109;-79
2021/04/25 06:55:17;;;;;;;0.38;0.38;;;7.60;58.70;;;;;;4996102;28;20034;-80
2021/04/25 06:57:47;;;;;;;1.55;0.57;;;7.70;58.60;;;;;;4996217;28;20023;-78
2021/04/25 07:00:15;;;;;;;0.40;0.40;;;7.80;59.10;;;;;;4995401;28;20023;-80
2021/04/25 07:02:40;;;;;;;0.43;0.43;;;7.90;58.40;;;;;;4978224;28;20138;-79
2021/04/25 07:05:06;;;;;;;0.40;0.40;;;8.00;58.30;;;;;;4995786;28;20101;-78
2021/04/25 07:07:32;;;;;;;0.88;0.50;;;8.10;58.10;;;;;;4995747;28;20018;-79
2021/04/25 07:09:59;;;;;;;0.50;0.50;;;8.10;58.70;;;;;;4994430;28;20056;-79
2021/04/25 07:12:25;;;;;;;0.50;0.50;;;8.10;58.10;;;;;;4995743;28;20038;-78
2021/04/25 07:14:50;;;;;;;0.75;0.70;;;8.20;58.20;;;;;;4995216;28;20152;-78
2021/04/25 07:17:16;;;;;;;0.63;0.63;;;8.20;58.00;;;;;;4995574;28;20499;-76
2021/04/25 07:19:42;;;;;;;0.57;0.57;;;8.30;58.00;;;;;;4995618;28;20022;-77
2021/04/25 07:22:07;;;;;;;0.30;0.30;;;8.10;58.20;;;;;;4995485;28;20034;-77
2021/04/25 07:24:33;;;;;;;0.60;0.60;;;8.10;58.30;;;;;;4995536;28;20097;-78
2021/04/25 07:26:58;;;;;;;0.75;0.65;;;8.10;58.30;;;;;;4995440;28;20018;-78
2021/04/25 07:29:24;;;;;;;0.35;0.35;;;8.10;58.30;;;;;;4994828;28;20027;-79
2021/04/25 07:31:50;;;;;;;0.47;0.47;;;8.20;58.20;;;;;;4977879;28;20030;-78
2021/04/25 07:34:15;;;;;;;1.15;0.40;;;8.40;58.00;;;;;;4995350;28;20029;-78
2021/04/25 07:36:44;;;;;;;0.30;0.30;;;8.40;57.90;;;;;;4995233;28;20560;-78
2021/04/25 07:39:09;;;;;;;1.25;1.25;;;8.50;57.90;;;;;;4993896;28;20109;-78
2021/04/25 07:41:35;;;;;;;0.65;0.60;;;8.70;57.70;;;;;;4995096;28;20064;-76
2021/04/25 07:44:00;;;;;;;0.60;0.57;;;8.60;57.60;;;;;;4994752;28;20018;-78
2021/04/25 07:46:26;;;;;;;0.63;0.63;;;8.60;57.80;;;;;;4995126;28;20433;-78
2021/04/25 07:48:52;;;;;;;0.57;0.43;;;8.50;58.00;;;;;;4993869;28;20093;-78
2021/04/25 07:51:17;;;;;;;0.57;0.50;;;8.50;58.00;;;;;;4994745;28;20038;-78
2021/04/25 07:53:43;;;;;;;0.57;0.50;;;8.60;57.90;;;;;;4995001;28;20030;-79
2021/04/25 07:56:08;;;;;;;0.38;0.38;;;8.80;57.80;;;;;;4994765;28;20026;-79
2021/04/25 07:58:34;;;;;;;0.40;0.40;;;8.90;57.50;;;;;;4994241;28;20463;-79
2021/04/25 08:01:00;;;;;;;0.30;0.30;;;9.00;57.30;;;;;;4994490;28;20048;-78
2021/04/25 08:03:26;;;;;;;1.00;0.63;;;9.10;57.20;;;;;;4994587;28;20224;-78
2021/04/25 08:05:51;;;;;;;0.47;0.47;;;9.10;57.20;;;;;;4994525;28;20034;-78
2021/04/25 08:08:17;;;;;;;0.47;0.47;;;9.10;57.30;;;;;;4994586;28;20018;-77
2021/04/25 08:10:44;;;;;;;0.45;0.43;;;9.10;57.20;;;;;;4994379;28;20039;-79
2021/04/25 08:13:10;;;;;;;0.60;0.60;;;9.10;57.30;;;;;;4994108;28;20489;-77
2021/04/25 08:15:36;;;;;;;0.30;0.30;;;9.00;57.30;;;;;;4994523;28;20109;-78
2021/04/25 08:18:01;;;;;;;2.58;0.70;;;9.00;57.50;;;;;;4994343;28;20025;-78
2021/04/25 08:20:28;;;;;;;0.80;0.80;;;8.90;57.60;;;;;;4976754;28;20113;-79
2021/04/25 08:22:54;;;;;;;1.20;0.50;;;8.70;57.80;;;;;;4993491;28;20081;-77
2021/04/25 08:25:19;;;;;;;1.05;0.82;;;8.80;57.80;;;;;;4999155;28;20018;-76
2021/04/25 08:27:45;;;;;;;1.88;1.77;;;8.80;57.80;;;;;;5013376;28;20045;-77
2021/04/25 08:30:12;;;;;;;1.25;0.82;;;9.00;57.50;;;;;;4996301;28;20037;-76
2021/04/25 08:32:37;;;;;;;0.57;0.50;;;9.10;57.30;;;;;;5013684;28;20109;-77
2021/04/25 08:35:05;;;;;;;1.88;1.77;;;9.10;57.20;;;;;;4996122;28;20509;-77
2021/04/25 08:37:31;;;;;;;1.15;0.52;;;9.20;57.10;;;;;;5013712;28;20022;-77
2021/04/25 08:39:57;;;;;;;0.90;0.40;;;9.40;56.90;;;;;;5013914;28;20018;-76
2021/04/25 08:42:22;;;;;;;1.30;0.60;;;9.60;56.70;;;;;;5012992;28;20033;-76
2021/04/25 08:44:48;;;;;;;0.60;0.47;;;9.70;56.50;;;;;;5013674;28;20026;-76
2021/04/25 08:47:15;;;;;;;0.95;0.75;;;9.60;56.60;;;;;;4977824;28;20387;-77
2021/04/25 08:49:42;;;;;;;0.63;0.50;;;9.60;56.70;;;;;;4993783;28;20483;-75
2021/04/25 08:52:08;;;;;;;0.40;0.40;;;9.80;56.60;;;;;;4993873;28;20069;-77
2021/04/25 08:54:34;;;;;;;2.38;0.60;;;9.80;56.50;;;;;;4994252;28;20352;-76
2021/04/25 08:56:59;;;;;;;0.30;0.30;;;9.70;56.60;;;;;;4992978;28;20094;-76
2021/04/25 08:59:26;;;;;;;0.40;0.40;;;9.70;56.80;;;;;;4993714;28;20022;-77
2021/04/25 09:01:51;;;;;;;0.60;0.60;;;9.70;56.70;;;;;;4993400;28;20125;-76
2021/04/25 09:04:17;;;;;;;0.60;0.60;;;9.80;56.60;;;;;;4994012;28;20459;-77
2021/04/25 09:06:55;;;;;;;0.50;0.50;;;9.80;56.50;;;;;;4976103;28;20153;-77
2021/04/25 09:09:20;;;;;;;0.40;0.38;;;9.90;56.40;;;;;;4993716;28;20033;-75
2021/04/25 09:11:49;;;;;;;0.77;0.52;;;10.10;56.20;;;;;;4976146;28;20487;-77
2021/04/25 09:14:25;;;;;;;0.60;0.60;;;10.10;56.20;;;;;;4997792;28;20026;-77
2021/04/25 09:17:01;;;;;;;0.55;0.55;;;10.30;56.00;;;;;;4997620;28;20081;-77
2021/04/25 09:19:56;;;;;;;1.02;0.45;;;10.60;55.70;;;;;;4980145;28;20030;-77
2021/04/25 09:22:43;;;;;;;0.45;0.45;;;10.70;55.30;;;;;;4997693;28;20101;-77
2021/04/25 09:25:11;;;;;;;0.60;0.45;;;10.70;55.50;;;;;;4997232;28;20026;-77
2021/04/25 09:27:39;;;;;;;0.77;0.50;;;10.70;55.60;;;;;;4997582;28;20018;-77
2021/04/25 09:30:05;;;;;;;0.35;0.35;;;10.90;55.50;;;;;;4997270;28;20076;-77
2021/04/25 09:32:33;;;;;;;0.55;0.47;;;11.00;55.20;;;;;;4997392;28;20034;-75
2021/04/25 09:35:13;;;;;;;0.50;0.50;;;10.90;55.40;;;;;;4997521;28;20030;-77
2021/04/25 09:37:42;;;;;;;0.75;0.47;;;10.90;55.40;;;;;;4997318;28;20034;-76
2021/04/25 09:40:10;;;;;;;0.60;0.60;;;10.90;55.50;;;;;;4996791;28;20462;-78
2021/04/25 09:42:58;;;;;;;0.35;0.35;;;10.90;55.50;;;;;;4997203;28;20364;-76
2021/04/25 09:45:28;;;;;;;0.45;0.45;;;11.20;55.00;;;;;;4997225;28;20463;-78
2021/04/25 09:47:55;;;;;;;0.93;0.68;;;11.40;54.80;;;;;;4997085;28;20041;-77
2021/04/25 09:50:23;;;;;;;0.93;0.60;;;11.50;54.70;;;;;;4997104;28;20042;-77
2021/04/25 09:52:50;;;;;;;1.50;0.70;;;11.60;54.50;;;;;;4996957;28;20387;-76
2021/04/25 09:55:27;;;;;;;0.77;0.77;;;11.50;54.50;;;;;;4996474;28;20023;-76
2021/04/25 09:58:03;;;;;;;0.73;0.60;;;11.40;55.00;;;;;;4996835;28;20028;-76
2021/04/25 10:00:40;;;;;;;0.63;0.50;;;11.60;54.80;;;;;;4996844;28;20434;-76
2021/04/25 10:03:10;;;;;;;0.77;0.77;;;11.70;54.50;;;;;;4996700;28;20057;-77
2021/04/25 10:05:38;;;;;;;0.77;0.73;;;11.70;54.60;;;;;;4996821;28;20022;-77
2021/04/25 10:08:04;;;;;;;0.68;0.68;;;11.60;54.80;;;;;;4996071;28;20133;-77
2021/04/25 10:10:31;;;;;;;1.05;0.65;;;11.60;54.80;;;;;;4996637;28;20035;-77
2021/04/25 10:12:57;;;;;;;0.65;0.60;;;11.90;54.60;;;;;;4996568;28;20454;-76
2021/04/25 10:15:23;;;;;;;1.05;0.65;;;12.00;54.20;;;;;;4995599;28;20033;-75
2021/04/25 10:17:51;;;;;;;1.33;1.17;;;11.80;54.30;;;;;;4996394;28;20021;-76
2021/04/25 10:20:20;;;;;;;0.50;0.50;;;11.70;54.60;;;;;;4996441;28;20475;-78
2021/04/25 10:22:48;;;;;;;1.40;0.60;;;11.80;54.60;;;;;;4995502;28;20367;-76
2021/04/25 10:25:19;;;;;;;0.60;0.60;;;11.70;54.50;;;;;;4996558;28;20019;-77
2021/04/25 10:28:00;;;;;;;0.85;0.70;;;11.60;54.60;;;;;;4996410;28;20085;-74
2021/04/25 10:30:32;;;;;;;1.10;0.60;;;11.80;54.70;;;;;;4978620;28;20129;-73
2021/04/25 10:32:58;;;;;;;0.57;0.57;;;12.10;54.10;;;;;;4996393;28;20026;-73
2021/04/25 10:35:28;;;;;;;0.65;0.52;;;12.20;53.80;;;;;;4996237;28;20081;-75
2021/04/25 10:37:54;;;;;;;0.82;0.68;;;12.10;54.10;;;;;;4995751;28;20018;-73
2021/04/25 10:40:36;;;;;;;3.90;1.35;;;12.10;54.10;;;;;;4996164;28;20487;-73
2021/04/25 10:43:05;;;;;;;0.40;0.40;;;12.00;54.10;;;;;;4996274;28;20073;-74
2021/04/25 10:45:35;;;;;;;1.00;0.75;;;11.90;54.30;;;;;;4996122;28;20098;-75
2021/04/25 10:48:27;;;;;;;0.50;0.50;;;12.20;54.30;;;;;;4995949;28;20434;-73
2021/04/25 10:50:55;;;;;;;1.05;0.47;;;12.50;53.60;;;;;;4978315;28;20026;-74
2021/04/25 10:53:24;;;;;;;1.60;0.70;;;12.40;53.50;;;;;;4995598;28;20033;-72
2021/04/25 10:56:09;;;;;;;1.73;0.73;;;12.10;54.00;;;;;;4995879;28;20064;-74
2021/04/25 10:58:35;;;;;;;1.05;0.70;;;11.90;54.10;;;;;;4996117;28;20505;-74
2021/04/25 11:01:00;;;;;;;0.60;0.60;;;11.70;54.30;;;;;;4995745;28;20053;-74
2021/04/25 11:03:26;;;;;;;1.92;0.43;;;11.50;54.50;;;;;;4995487;28;20038;-75
2021/04/25 11:05:52;;;;;;;0.60;0.50;;;11.40;54.50;;;;;;4995373;28;20026;-76
2021/04/25 11:08:30;;;;;;;2.17;0.95;;;11.40;54.50;;;;;;4995691;28;20015;-75
2021/04/25 11:11:10;;;;;;;0.52;0.52;;;11.70;54.20;;;;;;4978471;28;20517;-75
2021/04/25 11:13:51;;;;;;;2.53;0.90;;;11.80;53.70;;;;;;4995608;28;20026;-72
2021/04/25 11:16:16;;;;;;;1.15;0.73;;;11.70;53.80;;;;;;4995879;28;20467;-73
2021/04/25 11:18:45;;;;;;;0.68;0.68;;;11.60;54.10;;;;;;4995813;28;20040;-74
2021/04/25 11:21:36;;;;;;;1.05;0.60;;;11.70;53.90;;;;;;4995027;28;20015;-72
2021/04/25 11:24:01;;;;;;;1.60;1.00;;;11.70;53.80;;;;;;4994447;28;20377;-72
2021/04/25 11:29:29;;;;;;;1.45;0.60;;;11.90;53.50;;;;;;4995378;28;20410;-74
2021/04/25 11:32:01;;;;;;;1.10;0.82;;;12.10;53.30;;;;;;4995258;28;20549;-73
2021/04/25 11:34:31;;;;;;;0.60;0.60;;;12.70;52.90;;;;;;4994186;28;20027;-74
2021/04/25 11:37:06;;;;;;;0.60;0.60;;;13.20;52.30;;;;;;4994633;28;20026;-74
2021/04/25 11:39:32;;;;;;;0.60;0.60;;;13.90;51.70;;;;;;4989615;28;20026;-73
2021/04/25 11:41:59;;;;;;;0.47;0.30;;;14.80;50.80;;;;;;4995084;28;20042;-74
2021/04/25 11:44:29;;;;;;;0.60;0.60;;;15.60;50.00;;;;;;4994986;28;20133;-72
2021/04/25 11:46:56;;;;;;;0.80;0.40;;;15.70;49.80;;;;;;4994875;28;20027;-73
2021/04/25 11:49:30;;;;;;;0.30;0.30;;;15.70;50.10;;;;;;4994463;28;20022;-75
2021/04/25 11:52:18;;;;;;;0.63;0.50;;;15.80;50.20;;;;;;4994639;28;20435;-73
2021/04/25 11:54:46;;;;;;;0.47;0.40;;;16.10;50.00;;;;;;4994823;28;20483;-74
2021/04/25 11:57:16;;;;;;;1.02;0.50;;;16.10;49.80;;;;;;4994624;28;20050;-73
2021/04/25 11:59:59;;;;;;;0.65;0.50;;;15.80;50.30;;;;;;4994669;28;20035;-73
2021/04/25 12:02:27;;;;;;;1.73;0.82;;;15.40;51.00;;;;;;4976930;28;20057;-74
2021/04/25 12:05:13;;;;;;;1.90;0.70;;;15.10;51.00;;;;;;4994195;28;20481;-74
2021/04/25 12:07:49;;;;;;;1.10;0.82;;;14.40;51.70;;;;;;4994650;28;20014;-72
2021/04/25 12:10:21;;;;;;;1.52;0.70;;;14.10;52.20;;;;;;4994477;28;20052;-74
2021/04/25 12:13:00;;;;;;;1.67;0.95;;;14.20;52.10;;;;;;4994593;28;20026;-74
2021/04/25 12:15:27;;;;;;;3.10;1.00;;;14.50;51.40;;;;;;4977107;28;20031;-73
2021/04/25 12:17:55;;;;;;;0.82;0.82;;;14.90;50.50;;;;;;4994378;28;20077;-74
2021/04/25 12:20:21;;;;;;;1.58;0.73;;;15.10;50.10;;;;;;4994176;28;20101;-74
2021/04/25 12:22:47;;;;;;;1.15;0.82;;;15.40;49.80;;;;;;4994436;28;20032;-72
2021/04/25 12:25:14;;;;;;;0.75;0.55;;;15.90;49.30;;;;;;4994555;28;20151;-73
2021/04/25 12:27:49;;;;;;;0.50;0.40;;;16.50;48.60;;;;;;4994298;28;20030;-73
2021/04/25 12:30:20;;;;;;;0.75;0.70;;;17.10;47.90;;;;;;4994258;28;20026;-73
2021/04/25 12:32:45;;;;;;;2.17;0.52;;;16.90;48.00;;;;;;4994136;28;20403;-73
2021/04/25 12:35:21;;;;;;;0.98;0.57;;;16.70;48.20;;;;;;4993543;28;20015;-73
2021/04/25 12:37:47;;;;;;;0.30;0.30;;;16.10;49.00;;;;;;4994158;28;20430;-74
2021/04/25 12:40:31;;;;;;;0.45;0.38;;;16.00;49.60;;;;;;4994234;28;20014;-74
2021/04/25 12:43:06;;;;;;;0.95;0.80;;;16.60;48.80;;;;;;4994022;28;20076;-72
2021/04/25 12:45:31;;;;;;;0.60;0.60;;;17.10;47.80;;;;;;4993999;28;20077;-73
2021/04/25 12:47:57;;;;;;;0.70;0.70;;;17.00;47.80;;;;;;4993586;28;20431;-73
2021/04/25 12:50:23;;;;;;;3.45;1.05;;;16.90;47.80;;;;;;4993954;28;20097;-72
2021/04/25 12:52:48;;;;;;;0.70;0.70;;;16.70;47.40;;;;;;4993901;28;20041;-73
2021/04/25 12:55:27;;;;;;;0.77;0.60;;;16.30;48.20;;;;;;4994078;28;20452;-73
2021/04/25 12:58:08;;;;;;;0.50;0.50;;;16.40;48.30;;;;;;4994031;28;20129;-73
2021/04/25 13:00:33;;;;;;;0.65;0.65;;;16.80;47.80;;;;;;4993607;28;20105;-73